sensor_id;sensor_type;location;lat;lon;timestamp;P1;durP1;ratioP1;P2;durP2;ratioP2
61076;SDS011;46956;52.186;19.716;2022-08-03T00:01:46;11.93;;;10.70;;
61076;SDS011;46956;52.186;19.716;2022-08-03T00:04:25;11.77;;;10.57;;
61076;SDS011;46956;52.186;19.716;2022-08-03T00:07:00;12.07;;;10.93;;
61076;SDS011;46956;52.186;19.716;2022-08-03T00:09:29;15.40;;;11.88;;
61076;SDS011;46956;52.186;19.716;2022-08-03T00:12:02;13.60;;;10.73;;
61076;SDS011;46956;52.186;19.716;2022-08-03T00:14:39;14.20;;;10.65;;
61076;SDS011;46956;52.186;19.716;2022-08-03T00:17:08;12.15;;;10.20;;
61076;SDS011;46956;52.186;19.716;2022-08-03T00:19:42;11.60;;;10.40;;
61076;SDS011;46956;52.186;19.716;2022-08-03T00:22:15;12.55;;;11.35;;
61076;SDS011;46956;52.186;19.716;2022-08-03T00:24:46;12.73;;;11.50;;
61076;SDS011;46956;52.186;19.716;2022-08-03T00:27:14;12.52;;;11.35;;
61076;SDS011;46956;52.186;19.716;2022-08-03T00:29:43;15.10;;;11.65;;
61076;SDS011;46956;52.186;19.716;2022-08-03T00:34:59;13.98;;;10.07;;
61076;SDS011;46956;52.186;19.716;2022-08-03T00:37:49;12.77;;;10.95;;
61076;SDS011;46956;52.186;19.716;2022-08-03T00:40:20;13.95;;;10.55;;
61076;SDS011;46956;52.186;19.716;2022-08-03T00:42:49;11.25;;;10.15;;
61076;SDS011;46956;52.186;19.716;2022-08-03T00:45:24;12.60;;;11.30;;
61076;SDS011;46956;52.186;19.716;2022-08-03T00:47:55;11.85;;;10.75;;
61076;SDS011;46956;52.186;19.716;2022-08-03T00:50:31;12.25;;;10.50;;
61076;SDS011;46956;52.186;19.716;2022-08-03T00:53:05;12.32;;;10.95;;
61076;SDS011;46956;52.186;19.716;2022-08-03T00:55:38;12.75;;;11.55;;
61076;SDS011;46956;52.186;19.716;2022-08-03T00:58:08;12.80;;;9.98;;
61076;SDS011;46956;52.186;19.716;2022-08-03T01:00:39;11.70;;;10.55;;
61076;SDS011;46956;52.186;19.716;2022-08-03T01:03:08;14.40;;;11.23;;
61076;SDS011;46956;52.186;19.716;2022-08-03T01:08:41;11.43;;;9.82;;
61076;SDS011;46956;52.186;19.716;2022-08-03T01:11:16;10.73;;;9.65;;
61076;SDS011;46956;52.186;19.716;2022-08-03T01:13:55;10.73;;;9.73;;
61076;SDS011;46956;52.186;19.716;2022-08-03T01:16:49;12.53;;;11.33;;
61076;SDS011;46956;52.186;19.716;2022-08-03T01:19:29;15.23;;;10.15;;
61076;SDS011;46956;52.186;19.716;2022-08-03T01:22:14;11.52;;;9.77;;
61076;SDS011;46956;52.186;19.716;2022-08-03T01:25:05;11.05;;;9.88;;
61076;SDS011;46956;52.186;19.716;2022-08-03T01:27:47;10.80;;;9.70;;
61076;SDS011;46956;52.186;19.716;2022-08-03T01:30:28;10.80;;;9.70;;
61076;SDS011;46956;52.186;19.716;2022-08-03T01:33:03;11.52;;;10.27;;
61076;SDS011;46956;52.186;19.716;2022-08-03T01:35:35;14.77;;;11.00;;
61076;SDS011;46956;52.186;19.716;2022-08-03T01:38:17;12.60;;;10.50;;
61076;SDS011;46956;52.186;19.716;2022-08-03T01:40:51;11.40;;;10.30;;
61076;SDS011;46956;52.186;19.716;2022-08-03T01:43:27;11.68;;;10.48;;
61076;SDS011;46956;52.186;19.716;2022-08-03T01:46:23;12.32;;;10.82;;
61076;SDS011;46956;52.186;19.716;2022-08-03T01:48:57;11.43;;;10.32;;
61076;SDS011;46956;52.186;19.716;2022-08-03T01:51:36;11.48;;;10.02;;
61076;SDS011;46956;52.186;19.716;2022-08-03T01:54:26;10.30;;;9.20;;
61076;SDS011;46956;52.186;19.716;2022-08-03T01:57:03;11.80;;;9.63;;
61076;SDS011;46956;52.186;19.716;2022-08-03T01:59:36;10.05;;;9.05;;
61076;SDS011;46956;52.186;19.716;2022-08-03T02:02:28;17.00;;;10.88;;
61076;SDS011;46956;52.186;19.716;2022-08-03T02:05:03;11.40;;;10.20;;
61076;SDS011;46956;52.186;19.716;2022-08-03T02:07:39;12.65;;;10.52;;
61076;SDS011;46956;52.186;19.716;2022-08-03T02:10:10;12.40;;;11.18;;
61076;SDS011;46956;52.186;19.716;2022-08-03T02:13:01;12.35;;;11.10;;
61076;SDS011;46956;52.186;19.716;2022-08-03T02:15:37;12.55;;;11.25;;
61076;SDS011;46956;52.186;19.716;2022-08-03T02:18:11;12.10;;;10.80;;
61076;SDS011;46956;52.186;19.716;2022-08-03T02:20:46;16.25;;;12.68;;
61076;SDS011;46956;52.186;19.716;2022-08-03T02:23:15;20.77;;;12.38;;
61076;SDS011;46956;52.186;19.716;2022-08-03T02:25:46;13.15;;;11.85;;
61076;SDS011;46956;52.186;19.716;2022-08-03T02:28:33;13.23;;;11.68;;
61076;SDS011;46956;52.186;19.716;2022-08-03T02:31:08;15.38;;;13.73;;
61076;SDS011;46956;52.186;19.716;2022-08-03T02:33:46;15.45;;;13.63;;
61076;SDS011;46956;52.186;19.716;2022-08-03T02:40:36;15.35;;;13.30;;
61076;SDS011;46956;52.186;19.716;2022-08-03T02:45:42;13.82;;;12.43;;
61076;SDS011;46956;52.186;19.716;2022-08-03T02:48:15;13.32;;;11.77;;
61076;SDS011;46956;52.186;19.716;2022-08-03T02:50:56;13.60;;;12.13;;
61076;SDS011;46956;52.186;19.716;2022-08-03T02:53:30;14.52;;;11.73;;
61076;SDS011;46956;52.186;19.716;2022-08-03T02:56:02;12.45;;;11.25;;
61076;SDS011;46956;52.186;19.716;2022-08-03T02:58:33;13.27;;;11.88;;
61076;SDS011;46956;52.186;19.716;2022-08-03T03:01:05;11.80;;;10.60;;
61076;SDS011;46956;52.186;19.716;2022-08-03T03:03:36;13.32;;;11.02;;
61076;SDS011;46956;52.186;19.716;2022-08-03T03:06:14;14.25;;;10.90;;
61076;SDS011;46956;52.186;19.716;2022-08-03T03:08:49;13.85;;;11.07;;
61076;SDS011;46956;52.186;19.716;2022-08-03T03:11:27;12.88;;;10.80;;
61076;SDS011;46956;52.186;19.716;2022-08-03T03:13:57;12.75;;;11.45;;
61076;SDS011;46956;52.186;19.716;2022-08-03T03:16:27;12.55;;;11.25;;
61076;SDS011;46956;52.186;19.716;2022-08-03T03:18:59;13.00;;;11.75;;
61076;SDS011;46956;52.186;19.716;2022-08-03T03:21:35;13.15;;;11.88;;
61076;SDS011;46956;52.186;19.716;2022-08-03T03:24:05;12.75;;;11.45;;
61076;SDS011;46956;52.186;19.716;2022-08-03T03:26:36;14.27;;;12.88;;
61076;SDS011;46956;52.186;19.716;2022-08-03T03:29:08;13.57;;;12.32;;
61076;SDS011;46956;52.186;19.716;2022-08-03T03:31:37;13.73;;;12.43;;
61076;SDS011;46956;52.186;19.716;2022-08-03T03:34:05;14.15;;;12.65;;
61076;SDS011;46956;52.186;19.716;2022-08-03T03:36:36;14.40;;;13.00;;
61076;SDS011;46956;52.186;19.716;2022-08-03T03:39:05;50.20;;;16.42;;
61076;SDS011;46956;52.186;19.716;2022-08-03T03:41:42;19.88;;;14.25;;
61076;SDS011;46956;52.186;19.716;2022-08-03T03:44:11;17.02;;;13.77;;
61076;SDS011;46956;52.186;19.716;2022-08-03T03:46:40;15.50;;;13.88;;
61076;SDS011;46956;52.186;19.716;2022-08-03T03:49:09;13.88;;;12.23;;
61076;SDS011;46956;52.186;19.716;2022-08-03T03:51:40;14.18;;;12.77;;
61076;SDS011;46956;52.186;19.716;2022-08-03T03:54:09;15.13;;;13.60;;
61076;SDS011;46956;52.186;19.716;2022-08-03T03:56:38;14.77;;;13.32;;
61076;SDS011;46956;52.186;19.716;2022-08-03T03:59:07;13.95;;;12.65;;
61076;SDS011;46956;52.186;19.716;2022-08-03T04:01:39;13.30;;;12.00;;
61076;SDS011;46956;52.186;19.716;2022-08-03T04:04:14;13.57;;;12.18;;
61076;SDS011;46956;52.186;19.716;2022-08-03T04:07:03;15.32;;;13.77;;
61076;SDS011;46956;52.186;19.716;2022-08-03T04:09:51;15.43;;;12.50;;
61076;SDS011;46956;52.186;19.716;2022-08-03T04:12:40;14.10;;;12.73;;
61076;SDS011;46956;52.186;19.716;2022-08-03T04:15:17;12.88;;;11.63;;
61076;SDS011;46956;52.186;19.716;2022-08-03T04:17:49;15.07;;;13.18;;
61076;SDS011;46956;52.186;19.716;2022-08-03T04:20:22;13.38;;;12.07;;
61076;SDS011;46956;52.186;19.716;2022-08-03T04:22:57;14.02;;;11.93;;
61076;SDS011;46956;52.186;19.716;2022-08-03T04:25:30;14.18;;;12.30;;
61076;SDS011;46956;52.186;19.716;2022-08-03T04:28:03;15.88;;;11.23;;
61076;SDS011;46956;52.186;19.716;2022-08-03T04:30:55;13.73;;;11.57;;
61076;SDS011;46956;52.186;19.716;2022-08-03T04:33:24;14.60;;;11.00;;
61076;SDS011;46956;52.186;19.716;2022-08-03T04:35:59;16.17;;;12.63;;
61076;SDS011;46956;52.186;19.716;2022-08-03T04:38:32;17.35;;;12.02;;
61076;SDS011;46956;52.186;19.716;2022-08-03T04:41:07;14.15;;;12.30;;
61076;SDS011;46956;52.186;19.716;2022-08-03T04:43:37;13.50;;;11.90;;
61076;SDS011;46956;52.186;19.716;2022-08-03T04:46:11;16.15;;;13.93;;
61076;SDS011;46956;52.186;19.716;2022-08-03T04:48:41;15.40;;;13.77;;
61076;SDS011;46956;52.186;19.716;2022-08-03T04:51:13;20.95;;;14.32;;
61076;SDS011;46956;52.186;19.716;2022-08-03T04:53:44;14.43;;;12.45;;
61076;SDS011;46956;52.186;19.716;2022-08-03T04:56:13;14.00;;;12.70;;
61076;SDS011;46956;52.186;19.716;2022-08-03T04:58:42;16.17;;;13.70;;
61076;SDS011;46956;52.186;19.716;2022-08-03T05:01:10;15.20;;;13.70;;
61076;SDS011;46956;52.186;19.716;2022-08-03T05:03:39;15.45;;;13.60;;
61076;SDS011;46956;52.186;19.716;2022-08-03T05:06:08;16.27;;;14.50;;
61076;SDS011;46956;52.186;19.716;2022-08-03T05:08:37;16.70;;;15.02;;
61076;SDS011;46956;52.186;19.716;2022-08-03T05:11:16;16.33;;;14.82;;
61076;SDS011;46956;52.186;19.716;2022-08-03T05:13:47;15.82;;;14.43;;
61076;SDS011;46956;52.186;19.716;2022-08-03T05:16:17;16.20;;;14.68;;
61076;SDS011;46956;52.186;19.716;2022-08-03T05:18:45;16.55;;;15.00;;
61076;SDS011;46956;52.186;19.716;2022-08-03T05:21:15;17.40;;;15.77;;
61076;SDS011;46956;52.186;19.716;2022-08-03T05:23:47;18.23;;;16.40;;
61076;SDS011;46956;52.186;19.716;2022-08-03T05:26:18;15.65;;;14.25;;
61076;SDS011;46956;52.186;19.716;2022-08-03T05:28:45;16.65;;;15.05;;
61076;SDS011;46956;52.186;19.716;2022-08-03T05:31:19;16.52;;;15.07;;
61076;SDS011;46956;52.186;19.716;2022-08-03T05:33:47;15.65;;;14.20;;
61076;SDS011;46956;52.186;19.716;2022-08-03T05:36:16;14.43;;;12.95;;
61076;SDS011;46956;52.186;19.716;2022-08-03T05:38:44;18.92;;;16.90;;
61076;SDS011;46956;52.186;19.716;2022-08-03T05:41:13;15.40;;;13.90;;
61076;SDS011;46956;52.186;19.716;2022-08-03T05:43:52;14.88;;;13.48;;
61076;SDS011;46956;52.186;19.716;2022-08-03T05:46:22;15.20;;;13.77;;
61076;SDS011;46956;52.186;19.716;2022-08-03T05:48:55;16.80;;;15.15;;
61076;SDS011;46956;52.186;19.716;2022-08-03T05:51:24;16.70;;;15.10;;
61076;SDS011;46956;52.186;19.716;2022-08-03T05:53:52;14.25;;;12.77;;
61076;SDS011;46956;52.186;19.716;2022-08-03T05:56:24;13.07;;;11.75;;
61076;SDS011;46956;52.186;19.716;2022-08-03T05:58:57;14.85;;;13.45;;
61076;SDS011;46956;52.186;19.716;2022-08-03T06:01:47;14.07;;;12.68;;
61076;SDS011;46956;52.186;19.716;2022-08-03T06:04:15;16.23;;;14.52;;
61076;SDS011;46956;52.186;19.716;2022-08-03T06:06:44;12.75;;;11.55;;
61076;SDS011;46956;52.186;19.716;2022-08-03T06:09:15;13.63;;;11.57;;
61076;SDS011;46956;52.186;19.716;2022-08-03T06:11:44;13.68;;;12.27;;
61076;SDS011;46956;52.186;19.716;2022-08-03T06:14:19;12.77;;;11.40;;
61076;SDS011;46956;52.186;19.716;2022-08-03T06:16:52;12.60;;;10.45;;
61076;SDS011;46956;52.186;19.716;2022-08-03T06:19:22;11.50;;;9.30;;
61076;SDS011;46956;52.186;19.716;2022-08-03T06:21:51;12.13;;;10.35;;
61076;SDS011;46956;52.186;19.716;2022-08-03T06:24:20;10.90;;;9.20;;
61076;SDS011;46956;52.186;19.716;2022-08-03T06:26:53;9.43;;;8.43;;
61076;SDS011;46956;52.186;19.716;2022-08-03T06:29:29;10.15;;;8.35;;
61076;SDS011;46956;52.186;19.716;2022-08-03T06:32:14;9.77;;;8.82;;
61076;SDS011;46956;52.186;19.716;2022-08-03T06:34:43;9.25;;;7.93;;
61076;SDS011;46956;52.186;19.716;2022-08-03T06:37:26;9.82;;;8.85;;
61076;SDS011;46956;52.186;19.716;2022-08-03T06:39:56;9.77;;;8.63;;
61076;SDS011;46956;52.186;19.716;2022-08-03T06:42:28;11.30;;;9.75;;
61076;SDS011;46956;52.186;19.716;2022-08-03T06:45:05;10.25;;;9.18;;
61076;SDS011;46956;52.186;19.716;2022-08-03T06:47:45;10.60;;;9.45;;
61076;SDS011;46956;52.186;19.716;2022-08-03T06:50:13;11.63;;;10.52;;
61076;SDS011;46956;52.186;19.716;2022-08-03T06:53:00;10.23;;;9.23;;
61076;SDS011;46956;52.186;19.716;2022-08-03T06:55:32;11.25;;;8.63;;
61076;SDS011;46956;52.186;19.716;2022-08-03T06:58:09;11.73;;;8.98;;
61076;SDS011;46956;52.186;19.716;2022-08-03T07:00:51;11.32;;;8.68;;
61076;SDS011;46956;52.186;19.716;2022-08-03T07:03:21;9.68;;;8.65;;
61076;SDS011;46956;52.186;19.716;2022-08-03T07:05:51;10.13;;;8.38;;
61076;SDS011;46956;52.186;19.716;2022-08-03T07:08:19;9.25;;;8.45;;
61076;SDS011;46956;52.186;19.716;2022-08-03T07:11:00;9.32;;;8.35;;
61076;SDS011;46956;52.186;19.716;2022-08-03T07:13:31;9.40;;;8.25;;
61076;SDS011;46956;52.186;19.716;2022-08-03T07:16:03;9.45;;;8.32;;
61076;SDS011;46956;52.186;19.716;2022-08-03T07:18:32;32.60;;;9.13;;
61076;SDS011;46956;52.186;19.716;2022-08-03T07:21:01;85.20;;;12.35;;
61076;SDS011;46956;52.186;19.716;2022-08-03T07:23:32;76.55;;;11.98;;
61076;SDS011;46956;52.186;19.716;2022-08-03T07:26:01;123.32;;;14.25;;
61076;SDS011;46956;52.186;19.716;2022-08-03T07:28:30;51.65;;;10.75;;
61076;SDS011;46956;52.186;19.716;2022-08-03T07:31:09;38.50;;;10.80;;
61076;SDS011;46956;52.186;19.716;2022-08-03T07:33:38;42.70;;;10.30;;
61076;SDS011;46956;52.186;19.716;2022-08-03T07:36:37;34.15;;;11.30;;
61076;SDS011;46956;52.186;19.716;2022-08-03T07:39:28;18.00;;;9.10;;
61076;SDS011;46956;52.186;19.716;2022-08-03T07:41:59;12.90;;;8.55;;
61076;SDS011;46956;52.186;19.716;2022-08-03T07:44:48;12.23;;;8.45;;
61076;SDS011;46956;52.186;19.716;2022-08-03T07:47:20;11.68;;;8.15;;
61076;SDS011;46956;52.186;19.716;2022-08-03T07:50:05;12.77;;;8.32;;
61076;SDS011;46956;52.186;19.716;2022-08-03T07:52:56;9.65;;;7.88;;
61076;SDS011;46956;52.186;19.716;2022-08-03T07:56:06;9.00;;;7.47;;
61076;SDS011;46956;52.186;19.716;2022-08-03T07:59:14;7.40;;;6.63;;
61076;SDS011;46956;52.186;19.716;2022-08-03T08:02:16;7.75;;;6.95;;
61076;SDS011;46956;52.186;19.716;2022-08-03T08:04:51;7.93;;;7.13;;
61076;SDS011;46956;52.186;19.716;2022-08-03T08:07:58;8.00;;;6.70;;
61076;SDS011;46956;52.186;19.716;2022-08-03T08:11:04;9.30;;;7.00;;
61076;SDS011;46956;52.186;19.716;2022-08-03T08:13:54;8.32;;;6.60;;
61076;SDS011;46956;52.186;19.716;2022-08-03T08:17:06;8.52;;;6.38;;
61076;SDS011;46956;52.186;19.716;2022-08-03T08:20:23;7.07;;;6.38;;
61076;SDS011;46956;52.186;19.716;2022-08-03T08:22:59;7.57;;;6.72;;
61076;SDS011;46956;52.186;19.716;2022-08-03T08:25:38;7.28;;;5.97;;
61076;SDS011;46956;52.186;19.716;2022-08-03T08:28:24;6.95;;;5.78;;
61076;SDS011;46956;52.186;19.716;2022-08-03T08:31:02;7.82;;;6.00;;
61076;SDS011;46956;52.186;19.716;2022-08-03T08:34:01;7.32;;;6.47;;
61076;SDS011;46956;52.186;19.716;2022-08-03T08:36:51;6.88;;;6.18;;
61076;SDS011;46956;52.186;19.716;2022-08-03T08:39:56;9.13;;;6.55;;
61076;SDS011;46956;52.186;19.716;2022-08-03T08:43:15;7.05;;;5.95;;
61076;SDS011;46956;52.186;19.716;2022-08-03T08:48:27;7.35;;;6.40;;
61076;SDS011;46956;52.186;19.716;2022-08-03T08:51:55;6.90;;;6.20;;
61076;SDS011;46956;52.186;19.716;2022-08-03T08:54:32;7.85;;;6.00;;
61076;SDS011;46956;52.186;19.716;2022-08-03T08:57:07;6.70;;;6.00;;
61076;SDS011;46956;52.186;19.716;2022-08-03T09:00:05;7.57;;;6.30;;
61076;SDS011;46956;52.186;19.716;2022-08-03T09:05:15;7.03;;;6.40;;
61076;SDS011;46956;52.186;19.716;2022-08-03T09:08:11;7.20;;;6.40;;
61076;SDS011;46956;52.186;19.716;2022-08-03T09:13:39;9.77;;;6.68;;
61076;SDS011;46956;52.186;19.716;2022-08-03T09:19:39;6.93;;;6.20;;
61076;SDS011;46956;52.186;19.716;2022-08-03T09:22:59;7.47;;;6.30;;
61076;SDS011;46956;52.186;19.716;2022-08-03T09:29:41;7.40;;;6.60;;
61076;SDS011;46956;52.186;19.716;2022-08-03T09:32:58;12.85;;;7.15;;
61076;SDS011;46956;52.186;19.716;2022-08-03T09:35:30;8.38;;;6.70;;
61076;SDS011;46956;52.186;19.716;2022-08-03T09:38:22;7.78;;;6.75;;
61076;SDS011;46956;52.186;19.716;2022-08-03T09:40:55;7.57;;;6.78;;
61076;SDS011;46956;52.186;19.716;2022-08-03T09:43:27;7.60;;;6.80;;
61076;SDS011;46956;52.186;19.716;2022-08-03T09:49:29;11.45;;;7.30;;
61076;SDS011;46956;52.186;19.716;2022-08-03T09:52:11;8.60;;;7.25;;
61076;SDS011;46956;52.186;19.716;2022-08-03T09:55:07;8.20;;;7.40;;
61076;SDS011;46956;52.186;19.716;2022-08-03T09:58:43;8.25;;;7.53;;
61076;SDS011;46956;52.186;19.716;2022-08-03T10:01:20;8.57;;;7.68;;
61076;SDS011;46956;52.186;19.716;2022-08-03T10:04:02;8.20;;;7.40;;
61076;SDS011;46956;52.186;19.716;2022-08-03T10:10:22;10.45;;;8.15;;
61076;SDS011;46956;52.186;19.716;2022-08-03T10:13:44;9.85;;;8.60;;
61076;SDS011;46956;52.186;19.716;2022-08-03T10:16:14;9.02;;;8.23;;
61076;SDS011;46956;52.186;19.716;2022-08-03T10:23:23;8.90;;;8.00;;
61076;SDS011;46956;52.186;19.716;2022-08-03T10:26:26;9.10;;;8.20;;
61076;SDS011;46956;52.186;19.716;2022-08-03T10:29:34;9.07;;;8.27;;
61076;SDS011;46956;52.186;19.716;2022-08-03T10:32:33;9.45;;;8.55;;
61076;SDS011;46956;52.186;19.716;2022-08-03T10:35:07;12.65;;;9.20;;
61076;SDS011;46956;52.186;19.716;2022-08-03T10:41:31;10.35;;;9.35;;
61076;SDS011;46956;52.186;19.716;2022-08-03T10:44:47;9.23;;;8.38;;
61076;SDS011;46956;52.186;19.716;2022-08-03T10:47:44;9.20;;;8.30;;
61076;SDS011;46956;52.186;19.716;2022-08-03T10:51:37;9.55;;;8.60;;
61076;SDS011;46956;52.186;19.716;2022-08-03T10:54:39;15.80;;;8.63;;
61076;SDS011;46956;52.186;19.716;2022-08-03T10:57:47;9.32;;;8.35;;
61076;SDS011;46956;52.186;19.716;2022-08-03T11:00:28;11.98;;;8.55;;
61076;SDS011;46956;52.186;19.716;2022-08-03T11:03:21;9.20;;;8.30;;
61076;SDS011;46956;52.186;19.716;2022-08-03T11:05:50;10.00;;;8.68;;
61076;SDS011;46956;52.186;19.716;2022-08-03T11:08:35;9.55;;;8.75;;
61076;SDS011;46956;52.186;19.716;2022-08-03T11:11:39;9.68;;;8.80;;
61076;SDS011;46956;52.186;19.716;2022-08-03T11:14:13;9.90;;;9.00;;
61076;SDS011;46956;52.186;19.716;2022-08-03T11:16:49;9.90;;;9.00;;
61076;SDS011;46956;52.186;19.716;2022-08-03T11:20:12;9.48;;;8.68;;
61076;SDS011;46956;52.186;19.716;2022-08-03T11:23:10;9.73;;;8.83;;
61076;SDS011;46956;52.186;19.716;2022-08-03T11:28:42;10.10;;;9.20;;
61076;SDS011;46956;52.186;19.716;2022-08-03T11:40:25;11.15;;;10.05;;
61076;SDS011;46956;52.186;19.716;2022-08-03T11:43:09;10.07;;;9.20;;
61076;SDS011;46956;52.186;19.716;2022-08-03T11:46:37;9.82;;;9.02;;
61076;SDS011;46956;52.186;19.716;2022-08-03T11:49:12;10.60;;;9.70;;
61076;SDS011;46956;52.186;19.716;2022-08-03T11:51:54;10.75;;;9.85;;
61076;SDS011;46956;52.186;19.716;2022-08-03T12:00:44;10.60;;;9.60;;
61076;SDS011;46956;52.186;19.716;2022-08-03T12:03:35;9.80;;;8.88;;
61076;SDS011;46956;52.186;19.716;2022-08-03T12:06:17;10.88;;;9.88;;
61076;SDS011;46956;52.186;19.716;2022-08-03T12:08:46;10.13;;;9.15;;
61076;SDS011;46956;52.186;19.716;2022-08-03T12:11:16;10.48;;;9.57;;
61076;SDS011;46956;52.186;19.716;2022-08-03T12:16:43;9.75;;;8.88;;
61076;SDS011;46956;52.186;19.716;2022-08-03T12:19:18;10.25;;;9.40;;
61076;SDS011;46956;52.186;19.716;2022-08-03T12:24:59;10.48;;;9.57;;
61076;SDS011;46956;52.186;19.716;2022-08-03T12:27:30;10.40;;;9.43;;
61076;SDS011;46956;52.186;19.716;2022-08-03T12:30:18;10.73;;;9.82;;
61076;SDS011;46956;52.186;19.716;2022-08-03T12:35:24;10.82;;;9.93;;
61076;SDS011;46956;52.186;19.716;2022-08-03T12:43:11;11.30;;;10.40;;
61076;SDS011;46956;52.186;19.716;2022-08-03T12:48:59;10.02;;;9.23;;
61076;SDS011;46956;52.186;19.716;2022-08-03T12:51:29;10.90;;;10.00;;
61076;SDS011;46956;52.186;19.716;2022-08-03T12:56:55;10.77;;;9.88;;
61076;SDS011;46956;52.186;19.716;2022-08-03T12:59:31;10.23;;;9.43;;
61076;SDS011;46956;52.186;19.716;2022-08-03T13:02:16;11.63;;;10.43;;
61076;SDS011;46956;52.186;19.716;2022-08-03T13:07:25;10.98;;;10.07;;
61076;SDS011;46956;52.186;19.716;2022-08-03T13:09:57;11.35;;;10.35;;
61076;SDS011;46956;52.186;19.716;2022-08-03T13:12:32;11.15;;;10.25;;
61076;SDS011;46956;52.186;19.716;2022-08-03T13:15:02;10.93;;;10.00;;
61076;SDS011;46956;52.186;19.716;2022-08-03T13:17:37;11.73;;;10.65;;
61076;SDS011;46956;52.186;19.716;2022-08-03T13:20:09;11.68;;;10.75;;
61076;SDS011;46956;52.186;19.716;2022-08-03T13:22:45;11.50;;;10.60;;
61076;SDS011;46956;52.186;19.716;2022-08-03T13:25:19;12.07;;;10.90;;
61076;SDS011;46956;52.186;19.716;2022-08-03T13:28:04;10.52;;;9.63;;
61076;SDS011;46956;52.186;19.716;2022-08-03T13:30:37;11.18;;;9.93;;
61076;SDS011;46956;52.186;19.716;2022-08-03T13:33:09;11.53;;;10.57;;
61076;SDS011;46956;52.186;19.716;2022-08-03T13:35:38;11.10;;;10.20;;
61076;SDS011;46956;52.186;19.716;2022-08-03T13:38:23;11.70;;;10.70;;
61076;SDS011;46956;52.186;19.716;2022-08-03T13:40:56;10.90;;;10.00;;
61076;SDS011;46956;52.186;19.716;2022-08-03T13:43:31;11.85;;;10.75;;
61076;SDS011;46956;52.186;19.716;2022-08-03T13:46:00;11.57;;;10.68;;
61076;SDS011;46956;52.186;19.716;2022-08-03T13:48:37;10.77;;;9.88;;
61076;SDS011;46956;52.186;19.716;2022-08-03T13:51:07;11.95;;;10.85;;
61076;SDS011;46956;52.186;19.716;2022-08-03T13:53:43;11.65;;;10.75;;
61076;SDS011;46956;52.186;19.716;2022-08-03T13:56:15;12.07;;;11.07;;
61076;SDS011;46956;52.186;19.716;2022-08-03T13:58:50;11.57;;;10.68;;
61076;SDS011;46956;52.186;19.716;2022-08-03T14:01:19;10.57;;;9.77;;
61076;SDS011;46956;52.186;19.716;2022-08-03T14:04:07;12.32;;;10.57;;
61076;SDS011;46956;52.186;19.716;2022-08-03T14:06:48;12.00;;;10.90;;
61076;SDS011;46956;52.186;19.716;2022-08-03T14:09:19;11.02;;;10.13;;
61076;SDS011;46956;52.186;19.716;2022-08-03T14:11:51;11.40;;;10.40;;
61076;SDS011;46956;52.186;19.716;2022-08-03T14:14:35;11.45;;;10.35;;
61076;SDS011;46956;52.186;19.716;2022-08-03T14:17:03;11.85;;;10.25;;
61076;SDS011;46956;52.186;19.716;2022-08-03T14:19:33;12.27;;;11.02;;
61076;SDS011;46956;52.186;19.716;2022-08-03T14:22:19;11.70;;;10.80;;
61076;SDS011;46956;52.186;19.716;2022-08-03T14:24:53;11.85;;;10.75;;
61076;SDS011;46956;52.186;19.716;2022-08-03T14:27:24;12.05;;;11.07;;
61076;SDS011;46956;52.186;19.716;2022-08-03T14:29:54;12.57;;;11.60;;
61076;SDS011;46956;52.186;19.716;2022-08-03T14:32:27;12.40;;;11.40;;
61076;SDS011;46956;52.186;19.716;2022-08-03T14:34:58;12.77;;;11.60;;
61076;SDS011;46956;52.186;19.716;2022-08-03T14:37:30;12.60;;;11.60;;
61076;SDS011;46956;52.186;19.716;2022-08-03T14:40:02;12.48;;;11.38;;
61076;SDS011;46956;52.186;19.716;2022-08-03T14:42:33;12.30;;;11.32;;
61076;SDS011;46956;52.186;19.716;2022-08-03T14:45:02;14.80;;;11.50;;
61076;SDS011;46956;52.186;19.716;2022-08-03T14:47:35;12.10;;;11.10;;
61076;SDS011;46956;52.186;19.716;2022-08-03T14:50:07;12.23;;;11.23;;
61076;SDS011;46956;52.186;19.716;2022-08-03T14:52:56;14.30;;;12.20;;
61076;SDS011;46956;52.186;19.716;2022-08-03T14:58:16;12.27;;;11.27;;
61076;SDS011;46956;52.186;19.716;2022-08-03T15:00:49;11.82;;;10.70;;
61076;SDS011;46956;52.186;19.716;2022-08-03T15:03:22;11.82;;;10.73;;
61076;SDS011;46956;52.186;19.716;2022-08-03T15:05:52;11.98;;;10.90;;
61076;SDS011;46956;52.186;19.716;2022-08-03T15:13:27;11.90;;;10.90;;
61076;SDS011;46956;52.186;19.716;2022-08-03T15:15:55;11.90;;;10.95;;
61076;SDS011;46956;52.186;19.716;2022-08-03T15:20:55;12.40;;;11.40;;
61076;SDS011;46956;52.186;19.716;2022-08-03T15:23:28;12.05;;;11.02;;
61076;SDS011;46956;52.186;19.716;2022-08-03T15:25:59;13.50;;;12.30;;
61076;SDS011;46956;52.186;19.716;2022-08-03T15:28:51;13.32;;;12.20;;
61076;SDS011;46956;52.186;19.716;2022-08-03T15:31:21;12.02;;;11.02;;
61076;SDS011;46956;52.186;19.716;2022-08-03T15:33:51;12.02;;;11.13;;
61076;SDS011;46956;52.186;19.716;2022-08-03T15:36:19;12.05;;;11.07;;
61076;SDS011;46956;52.186;19.716;2022-08-03T15:38:47;12.95;;;11.75;;
61076;SDS011;46956;52.186;19.716;2022-08-03T15:41:16;12.25;;;11.32;;
61076;SDS011;46956;52.186;19.716;2022-08-03T15:43:45;12.20;;;11.20;;
61076;SDS011;46956;52.186;19.716;2022-08-03T15:46:16;12.43;;;11.40;;
61076;SDS011;46956;52.186;19.716;2022-08-03T15:48:45;13.05;;;12.02;;
61076;SDS011;46956;52.186;19.716;2022-08-03T15:51:17;13.07;;;11.82;;
61076;SDS011;46956;52.186;19.716;2022-08-03T15:53:46;13.27;;;12.18;;
61076;SDS011;46956;52.186;19.716;2022-08-03T15:56:17;14.48;;;11.38;;
61076;SDS011;46956;52.186;19.716;2022-08-03T15:58:46;13.00;;;11.90;;
61076;SDS011;46956;52.186;19.716;2022-08-03T16:01:36;13.05;;;11.73;;
61076;SDS011;46956;52.186;19.716;2022-08-03T16:04:08;13.95;;;11.73;;
61076;SDS011;46956;52.186;19.716;2022-08-03T16:06:37;12.35;;;11.35;;
61076;SDS011;46956;52.186;19.716;2022-08-03T16:09:07;75.75;;;58.90;;
61076;SDS011;46956;52.186;19.716;2022-08-03T16:11:56;17.77;;;15.95;;
61076;SDS011;46956;52.186;19.716;2022-08-03T16:14:29;13.70;;;12.60;;
61076;SDS011;46956;52.186;19.716;2022-08-03T16:17:20;13.05;;;11.95;;
61076;SDS011;46956;52.186;19.716;2022-08-03T16:19:47;13.40;;;12.25;;
61076;SDS011;46956;52.186;19.716;2022-08-03T16:22:15;13.50;;;12.20;;
61076;SDS011;46956;52.186;19.716;2022-08-03T16:24:43;13.35;;;12.25;;
61076;SDS011;46956;52.186;19.716;2022-08-03T16:27:17;13.25;;;12.13;;
61076;SDS011;46956;52.186;19.716;2022-08-03T16:30:08;13.75;;;12.45;;
61076;SDS011;46956;52.186;19.716;2022-08-03T16:32:48;17.90;;;15.98;;
61076;SDS011;46956;52.186;19.716;2022-08-03T16:35:21;12.98;;;11.98;;
61076;SDS011;46956;52.186;19.716;2022-08-03T16:37:50;12.95;;;11.85;;
61076;SDS011;46956;52.186;19.716;2022-08-03T16:40:25;13.52;;;12.32;;
61076;SDS011;46956;52.186;19.716;2022-08-03T16:43:00;12.88;;;11.85;;
61076;SDS011;46956;52.186;19.716;2022-08-03T16:45:48;13.30;;;12.10;;
61076;SDS011;46956;52.186;19.716;2022-08-03T16:53:28;13.63;;;12.43;;
61076;SDS011;46956;52.186;19.716;2022-08-03T16:56:22;12.35;;;11.45;;
61076;SDS011;46956;52.186;19.716;2022-08-03T16:59:03;11.70;;;10.70;;